Time;durP1;ratioP1;P1;durP2;ratioP2;P2;SDS_P1;SDS_P2;PMS_P1;PMS_P2;Temp;Humidity;BMP_temperature;BMP_pressure;BME280_temperature;BME280_humidity;BME280_pressure;Samples;Min_cycle;Max_cycle;Signal;HPM_P1;HPM_P2
2021/10/31 00:01:59;;;;;;;;;;;15.10;53.20;;;;;;4375745;32;20097;-41
2021/10/31 00:04:25;;;;;;;;;;;15.10;53.20;;;;;;4375741;32;19989;-41
2021/10/31 00:06:52;;;;;;;;;;;15.10;53.20;;;;;;4374059;32;20029;-41
2021/10/31 00:09:18;;;;;;;;;;;15.10;53.20;;;;;;4375504;32;20453;-41
2021/10/31 00:11:44;;;;;;;;;;;15.10;53.20;;;;;;4375877;32;19974;-40
2021/10/31 00:14:10;;;;;;;;;;;15.00;53.20;;;;;;4375958;32;20002;-39
2021/10/31 00:16:36;;;;;;;;;;;15.00;53.30;;;;;;4375558;32;20390;-40
2021/10/31 00:19:03;;;;;;;;;;;15.00;53.40;;;;;;4387171;32;19970;-41
2021/10/31 00:21:29;;;;;;;;;;;15.00;53.60;;;;;;4390429;32;19969;-41
2021/10/31 00:23:55;;;;;;;;;;;15.00;53.60;;;;;;4390432;32;20008;-41
2021/10/31 00:26:22;;;;;;;;;;;15.00;53.60;;;;;;4390541;32;20390;-41
2021/10/31 00:28:48;;;;;;;;;;;15.00;53.60;;;;;;4390525;32;19966;-41
2021/10/31 00:31:14;;;;;;;;;;;15.00;53.50;;;;;;4389980;32;19972;-41
2021/10/31 00:33:41;;;;;;;;;;;15.00;53.60;;;;;;4376765;32;20051;-40
2021/10/31 00:36:07;;;;;;;;;;;15.00;53.70;;;;;;4390496;32;19993;-40
2021/10/31 00:38:33;;;;;;;;;;;14.90;53.70;;;;;;4389877;32;19966;-40
2021/10/31 00:41:00;;;;;;;;;;;14.90;53.80;;;;;;4390129;32;20063;-40
2021/10/31 00:43:26;;;;;;;;;;;14.90;53.90;;;;;;4390546;32;19988;-40
2021/10/31 00:45:52;;;;;;;;;;;14.90;54.00;;;;;;4382933;32;19962;-41
2021/10/31 00:48:18;;;;;;;;;;;14.80;54.00;;;;;;4374976;32;19993;-40
2021/10/31 00:50:49;;;;;;;;;;;14.80;54.00;;;;;;4375032;32;19962;-40
2021/10/31 00:53:15;;;;;;;;;;;14.70;54.10;;;;;;4387078;32;20003;-41
2021/10/31 00:55:42;;;;;;;;;;;14.60;54.20;;;;;;4375364;32;19970;-41
2021/10/31 00:58:10;;;;;;;;;;;14.60;54.30;;;;;;4375035;32;19994;-42
2021/10/31 01:00:37;;;;;;;;;;;14.50;54.50;;;;;;4375019;32;20472;-41
2021/10/31 01:03:03;;;;;;;;;;;14.50;54.60;;;;;;4372147;32;19998;-41
2021/10/31 01:05:32;;;;;;;;;;;14.40;54.60;;;;;;4372319;32;19973;-40
2021/10/31 01:08:21;;;;;;;;;;;14.40;54.80;;;;;;4359912;32;20163;-40
2021/10/31 01:10:56;;;;;;;;;;;14.30;54.90;;;;;;4359945;32;20050;-40
2021/10/31 01:13:30;;;;;;;;;;;14.20;55.00;;;;;;4372104;32;19981;-41
2021/10/31 01:16:12;;;;;;;;;;;14.20;54.40;;;;;;4359531;32;20543;-39
2021/10/31 01:19:06;;;;;;;;;;;14.10;55.80;;;;;;4372015;32;19963;-40
2021/10/31 01:21:48;;;;;;;;;;;14.10;55.20;;;;;;4360067;32;20351;-41
2021/10/31 01:24:33;;;;;;;;;;;14.10;55.30;;;;;;4345932;32;19967;-40
2021/10/31 01:27:21;;;;;;;;;;;14.00;55.40;;;;;;4342498;33;19994;-41
2021/10/31 01:30:16;;;;;;;;;;;13.90;55.40;;;;;;4341798;33;20431;-41
2021/10/31 01:33:19;;;;;;;;;;;13.90;55.60;;;;;;4329960;33;19974;-41
2021/10/31 01:35:56;;;;;;;;;;;13.90;55.80;;;;;;4374036;32;20523;-41
2021/10/31 01:38:47;;;;;;;;;;;13.90;55.80;;;;;;4360467;32;20025;-41
2021/10/31 01:41:17;;;;;;;;;;;13.90;55.90;;;;;;4374280;32;19957;-41
2021/10/31 01:44:06;;;;;;;;;;;14.00;55.90;;;;;;4374323;32;19973;-40
2021/10/31 01:46:58;;;;;;;;;;;14.00;55.80;;;;;;4360312;32;20116;-41
2021/10/31 01:49:46;;;;;;;;;;;14.00;55.60;;;;;;4377259;32;19962;-41
2021/10/31 01:52:25;;;;;;;;;;;14.10;55.60;;;;;;4389172;32;19978;-41
2021/10/31 01:54:54;;;;;;;;;;;14.10;55.50;;;;;;4363191;32;19973;-41
2021/10/31 01:57:22;;;;;;;;;;;14.00;55.40;;;;;;4389363;32;19973;-41
2021/10/31 01:59:53;;;;;;;;;;;14.00;55.50;;;;;;4362513;32;20044;-40
2021/10/31 02:02:19;;;;;;;;;;;14.00;55.60;;;;;;4375126;32;19993;-41
2021/10/31 02:04:45;;;;;;;;;;;14.00;55.50;;;;;;4363060;32;19969;-41
2021/10/31 02:07:11;;;;;;;;;;;14.10;55.50;;;;;;4389082;32;19954;-41
2021/10/31 02:09:38;;;;;;;;;;;14.10;55.50;;;;;;4362440;32;19985;-39
2021/10/31 02:12:05;;;;;;;;;;;14.10;55.40;;;;;;4374942;32;19981;-40
2021/10/31 02:14:31;;;;;;;;;;;14.00;55.30;;;;;;4375021;32;19958;-42
2021/10/31 02:16:58;;;;;;;;;;;14.00;55.20;;;;;;4362717;32;20391;-40
2021/10/31 02:19:27;;;;;;;;;;;13.90;55.30;;;;;;4388723;32;20045;-40
2021/10/31 02:21:58;;;;;;;;;;;14.00;55.50;;;;;;4363061;32;20394;-41
2021/10/31 02:24:24;;;;;;;;;;;13.90;55.50;;;;;;4375039;32;20049;-41
2021/10/31 02:26:50;;;;;;;;;;;13.80;55.50;;;;;;4361930;32;19973;-40
2021/10/31 02:29:17;;;;;;;;;;;13.80;55.60;;;;;;4389172;32;20050;-41
2021/10/31 02:31:44;;;;;;;;;;;13.80;55.60;;;;;;4389089;32;19968;-40
2021/10/31 02:34:10;;;;;;;;;;;13.80;55.60;;;;;;4388730;32;19965;-41
2021/10/31 02:36:36;;;;;;;;;;;13.80;55.60;;;;;;4388614;32;20056;-40
2021/10/31 02:39:06;;;;;;;;;;;13.80;55.60;;;;;;4388333;32;19977;-40
2021/10/31 02:41:33;;;;;;;;;;;13.70;55.60;;;;;;4388998;32;19970;-40
2021/10/31 02:43:59;;;;;;;;;;;13.60;55.60;;;;;;4374117;32;19965;-40
2021/10/31 02:46:30;;;;;;;;;;;13.60;55.80;;;;;;4377869;32;19981;-41
2021/10/31 02:48:57;;;;;;;;;;;13.50;55.90;;;;;;4360182;32;20034;-40
2021/10/31 02:52:04;;;;;;;;;;;13.40;56.10;;;;;;4359462;32;19989;-41
2021/10/31 02:54:51;;;;;;;;;;;13.40;56.10;;;;;;4341308;33;20050;-39
2021/10/31 02:57:24;;;;;;;;;;;13.40;56.20;;;;;;4329156;33;20403;-40
2021/10/31 02:59:56;;;;;;;;;;;13.30;56.30;;;;;;4328782;33;19963;-39
2021/10/31 03:02:24;;;;;;;;;;;13.30;56.40;;;;;;4328865;33;19971;-41
2021/10/31 03:04:50;;;;;;;;;;;13.20;56.40;;;;;;4341134;33;20018;-39
2021/10/31 03:07:16;;;;;;;;;;;13.20;56.60;;;;;;4329776;33;19975;-41
2021/10/31 03:09:47;;;;;;;;;;;13.20;56.60;;;;;;4329042;33;20478;-42
2021/10/31 03:12:13;;;;;;;;;;;13.10;56.70;;;;;;4341189;33;20054;-40
2021/10/31 03:14:39;;;;;;;;;;;13.10;56.80;;;;;;4341432;33;19975;-40
2021/10/31 03:17:06;;;;;;;;;;;13.10;56.90;;;;;;4340814;33;20036;-41
2021/10/31 03:19:33;;;;;;;;;;;13.10;57.20;;;;;;4340970;33;20004;-42
2021/10/31 03:22:00;;;;;;;;;;;13.10;57.40;;;;;;4341219;33;20493;-40
2021/10/31 03:24:26;;;;;;;;;;;13.10;57.40;;;;;;4316180;33;19974;-41
2021/10/31 03:26:52;;;;;;;;;;;13.10;57.50;;;;;;4340992;33;19973;-40
2021/10/31 03:29:21;;;;;;;;;;;13.20;57.50;;;;;;4341144;33;20414;-41
2021/10/31 03:31:48;;;;;;;;;;;13.20;57.50;;;;;;4341075;33;19963;-40
2021/10/31 03:34:14;;;;;;;;;;;13.20;57.40;;;;;;4325746;33;20031;-40
2021/10/31 03:36:40;;;;;;;;;;;13.30;57.50;;;;;;4326225;33;20046;-40
2021/10/31 03:39:07;;;;;;;;;;;13.30;57.40;;;;;;4326141;33;19982;-40
2021/10/31 03:41:34;;;;;;;;;;;13.30;57.50;;;;;;4326519;33;19975;-40
2021/10/31 03:44:00;;;;;;;;;;;13.30;57.50;;;;;;4325732;33;20368;-40
2021/10/31 03:46:26;;;;;;;;;;;13.30;57.50;;;;;;4326406;33;19967;-40
2021/10/31 03:48:52;;;;;;;;;;;13.30;57.50;;;;;;4326285;33;19989;-38
2021/10/31 03:51:19;;;;;;;;;;;13.30;57.60;;;;;;4326165;33;20447;-41
2021/10/31 03:53:45;;;;;;;;;;;13.20;57.50;;;;;;4314052;33;19975;-40
2021/10/31 03:56:11;;;;;;;;;;;13.20;57.60;;;;;;4351733;32;20055;-41
2021/10/31 03:58:37;;;;;;;;;;;13.20;57.60;;;;;;4358655;32;20423;-41
2021/10/31 04:01:04;;;;;;;;;;;13.20;57.60;;;;;;4358372;32;20484;-40
2021/10/31 04:03:30;;;;;;;;;;;13.20;57.70;;;;;;4358528;32;20056;-42
2021/10/31 04:05:56;;;;;;;;;;;13.10;58.30;;;;;;4357956;32;19985;-40
2021/10/31 04:08:22;;;;;;;;;;;13.10;57.60;;;;;;4358799;32;19977;-41
2021/10/31 04:10:49;;;;;;;;;;;13.10;57.70;;;;;;4350367;32;20010;-41
2021/10/31 04:13:15;;;;;;;;;;;13.00;57.80;;;;;;4345649;32;19970;-42
2021/10/31 04:15:42;;;;;;;;;;;13.00;57.90;;;;;;4357965;32;20532;-40
2021/10/31 04:18:10;;;;;;;;;;;12.90;58.00;;;;;;4357843;32;20090;-40
2021/10/31 04:20:38;;;;;;;;;;;12.90;58.10;;;;;;4345709;32;19966;-40
2021/10/31 04:23:05;;;;;;;;;;;12.90;58.20;;;;;;4358514;32;19970;-40
2021/10/31 04:25:31;;;;;;;;;;;12.90;58.30;;;;;;4357788;32;19978;-40
2021/10/31 04:27:57;;;;;;;;;;;12.90;58.30;;;;;;4357722;32;19970;-41
2021/10/31 04:30:23;;;;;;;;;;;12.90;58.30;;;;;;4357963;32;20016;-40
2021/10/31 04:32:49;;;;;;;;;;;13.00;58.40;;;;;;4357822;32;20067;-41
2021/10/31 04:35:16;;;;;;;;;;;13.00;58.40;;;;;;4357319;32;20071;-39
2021/10/31 04:37:45;;;;;;;;;;;13.10;58.20;;;;;;4357529;32;19981;-40
2021/10/31 04:40:14;;;;;;;;;;;13.20;58.20;;;;;;4357716;32;20084;-41
2021/10/31 04:42:40;;;;;;;;;;;13.30;58.20;;;;;;4357602;32;20066;-40
2021/10/31 04:45:06;;;;;;;;;;;13.30;57.90;;;;;;4383206;32;19962;-41
2021/10/31 04:47:33;;;;;;;;;;;13.40;57.70;;;;;;4374905;32;20462;-39
2021/10/31 04:49:59;;;;;;;;;;;13.50;57.50;;;;;;4375056;32;19958;-40
2021/10/31 04:52:25;;;;;;;;;;;13.50;57.40;;;;;;4375219;32;20371;-40
2021/10/31 04:54:51;;;;;;;;;;;13.60;57.30;;;;;;4374891;32;20041;-40
2021/10/31 04:57:18;;;;;;;;;;;13.60;57.20;;;;;;4374837;32;19973;-40
2021/10/31 04:59:44;;;;;;;;;;;13.60;57.20;;;;;;4374239;32;20452;-41
2021/10/31 05:02:10;;;;;;;;;;;13.70;57.00;;;;;;4374941;32;19970;-40
2021/10/31 05:04:36;;;;;;;;;;;13.70;57.00;;;;;;4374921;32;20004;-40
2021/10/31 05:07:03;;;;;;;;;;;13.70;57.00;;;;;;4374213;32;19965;-40
2021/10/31 05:09:29;;;;;;;;;;;13.70;56.80;;;;;;4374309;32;20374;-40
2021/10/31 05:11:55;;;;;;;;;;;13.80;56.80;;;;;;4342386;33;20084;-41
2021/10/31 05:14:21;;;;;;;;;;;13.90;56.80;;;;;;4342487;33;19993;-40
2021/10/31 05:16:48;;;;;;;;;;;13.80;56.60;;;;;;4342198;33;20087;-40
2021/10/31 05:19:15;;;;;;;;;;;13.90;56.60;;;;;;4355072;32;19965;-40
2021/10/31 05:21:42;;;;;;;;;;;14.00;56.50;;;;;;4345169;32;19993;-40
2021/10/31 05:24:08;;;;;;;;;;;14.00;56.10;;;;;;4356737;32;19974;-41
2021/10/31 05:26:34;;;;;;;;;;;14.00;56.20;;;;;;4357145;32;20450;-39
2021/10/31 05:29:00;;;;;;;;;;;14.00;55.90;;;;;;4357169;32;20042;-39
2021/10/31 05:31:26;;;;;;;;;;;14.00;55.90;;;;;;4357349;32;19974;-39
2021/10/31 05:33:53;;;;;;;;;;;14.10;56.10;;;;;;4357046;32;19974;-40
2021/10/31 05:36:19;;;;;;;;;;;14.10;55.90;;;;;;4356468;32;20512;-41
2021/10/31 05:38:46;;;;;;;;;;;14.20;55.80;;;;;;4356371;32;20399;-41
2021/10/31 05:41:12;;;;;;;;;;;14.20;55.70;;;;;;4357021;32;19958;-41
2021/10/31 05:43:38;;;;;;;;;;;14.20;55.50;;;;;;4357043;32;19978;-39
2021/10/31 05:46:04;;;;;;;;;;;14.30;55.50;;;;;;4382152;32;19962;-41
2021/10/31 05:48:31;;;;;;;;;;;14.30;55.30;;;;;;4388959;32;20565;-39
2021/10/31 05:50:57;;;;;;;;;;;14.30;55.10;;;;;;4389183;32;20074;-41
2021/10/31 05:53:23;;;;;;;;;;;14.20;54.90;;;;;;4375011;32;19961;-40
2021/10/31 05:55:50;;;;;;;;;;;14.10;54.60;;;;;;4388477;32;20092;-41
2021/10/31 05:58:16;;;;;;;;;;;14.10;54.90;;;;;;4389304;32;20089;-41
2021/10/31 06:00:43;;;;;;;;;;;14.00;54.90;;;;;;4388811;32;20460;-40
2021/10/31 06:03:09;;;;;;;;;;;14.00;54.80;;;;;;4388811;32;19977;-41
2021/10/31 06:05:35;;;;;;;;;;;14.00;55.00;;;;;;4388805;32;19960;-41
2021/10/31 06:08:02;;;;;;;;;;;13.90;54.90;;;;;;4374595;32;20041;-40
2021/10/31 06:10:28;;;;;;;;;;;13.90;54.80;;;;;;4389296;32;20068;-41
2021/10/31 06:12:54;;;;;;;;;;;13.90;55.00;;;;;;4388422;32;20115;-41
2021/10/31 06:15:22;;;;;;;;;;;13.90;55.00;;;;;;4388588;32;20343;-41
2021/10/31 06:17:48;;;;;;;;;;;13.80;55.00;;;;;;4387633;32;20077;-41
2021/10/31 06:20:15;;;;;;;;;;;13.80;55.00;;;;;;4388613;32;19973;-40
2021/10/31 06:22:41;;;;;;;;;;;13.80;55.10;;;;;;4388579;32;20390;-41
2021/10/31 06:25:08;;;;;;;;;;;13.70;55.00;;;;;;4388301;32;19978;-40
2021/10/31 06:27:34;;;;;;;;;;;13.70;55.20;;;;;;4388734;32;19962;-40
2021/10/31 06:30:01;;;;;;;;;;;13.60;55.20;;;;;;4388600;32;20064;-41
2021/10/31 06:32:28;;;;;;;;;;;13.50;55.60;;;;;;4388678;32;19990;-41
2021/10/31 06:34:54;;;;;;;;;;;13.50;55.80;;;;;;4374610;32;20129;-41
2021/10/31 06:37:20;;;;;;;;;;;13.40;56.00;;;;;;4388409;32;20013;-40
2021/10/31 06:39:47;;;;;;;;;;;13.50;56.00;;;;;;4388291;32;19978;-40
2021/10/31 06:42:13;;;;;;;;;;;13.50;55.90;;;;;;4388467;32;19994;-41
2021/10/31 06:44:39;;;;;;;;;;;13.50;55.90;;;;;;4388709;32;19970;-40
2021/10/31 06:47:05;;;;;;;;;;;13.50;55.80;;;;;;4373423;32;20378;-41
2021/10/31 06:49:32;;;;;;;;;;;13.40;55.90;;;;;;4373521;32;20541;-39
2021/10/31 06:51:59;;;;;;;;;;;13.30;56.20;;;;;;4373135;32;19974;-41
2021/10/31 06:54:28;;;;;;;;;;;13.40;56.60;;;;;;4372606;32;19965;-47
2021/10/31 06:56:55;;;;;;;;;;;13.40;56.50;;;;;;4373173;32;19985;-41
2021/10/31 06:59:21;;;;;;;;;;;13.40;56.50;;;;;;4373323;32;20117;-41
2021/10/31 07:01:47;;;;;;;;;;;13.40;56.50;;;;;;4373628;32;19965;-40
2021/10/31 07:04:13;;;;;;;;;;;13.30;56.50;;;;;;4372938;32;19985;-41
2021/10/31 07:06:40;;;;;;;;;;;13.30;56.80;;;;;;4371803;32;19973;-42
2021/10/31 07:09:06;;;;;;;;;;;13.30;57.00;;;;;;4372982;32;20418;-41
2021/10/31 07:11:32;;;;;;;;;;;13.40;57.20;;;;;;4373308;32;20059;-40
2021/10/31 07:13:58;;;;;;;;;;;13.40;57.10;;;;;;4372827;32;20359;-40
2021/10/31 07:16:24;;;;;;;;;;;13.40;56.90;;;;;;4373025;32;20020;-40
2021/10/31 07:18:52;;;;;;;;;;;13.50;57.20;;;;;;4373304;32;20010;-40
2021/10/31 07:21:18;;;;;;;;;;;13.60;57.10;;;;;;4373233;32;19977;-41
2021/10/31 07:23:44;;;;;;;;;;;13.50;56.90;;;;;;4373190;32;20083;-40
2021/10/31 07:26:10;;;;;;;;;;;13.60;56.80;;;;;;4372839;32;19962;-40
2021/10/31 07:28:36;;;;;;;;;;;13.60;57.00;;;;;;4373007;32;20042;-41
2021/10/31 07:31:04;;;;;;;;;;;13.50;56.80;;;;;;4375728;32;20370;-40
2021/10/31 07:33:30;;;;;;;;;;;13.60;57.00;;;;;;4362000;32;19968;-41
2021/10/31 07:35:57;;;;;;;;;;;13.60;57.00;;;;;;4375353;32;20051;-41
2021/10/31 07:38:23;;;;;;;;;;;13.60;57.00;;;;;;4375524;32;20036;-42
2021/10/31 07:40:51;;;;;;;;;;;13.60;56.80;;;;;;4375756;32;19972;-41
2021/10/31 07:43:17;;;;;;;;;;;13.50;56.70;;;;;;4376020;32;20090;-40
2021/10/31 07:45:43;;;;;;;;;;;13.50;56.80;;;;;;4375648;32;19977;-41
2021/10/31 07:48:10;;;;;;;;;;;13.50;57.00;;;;;;4375339;32;20082;-42
2021/10/31 07:50:37;;;;;;;;;;;13.50;57.30;;;;;;4374716;32;19958;-38
2021/10/31 07:53:04;;;;;;;;;;;13.50;57.40;;;;;;4374531;32;19985;-40
2021/10/31 07:55:32;;;;;;;;;;;13.60;57.40;;;;;;4375833;32;19962;-40
2021/10/31 07:57:59;;;;;;;;;;;13.60;57.00;;;;;;4375321;32;20042;-41
2021/10/31 08:00:26;;;;;;;;;;;13.50;56.70;;;;;;4375551;32;19954;-40
2021/10/31 08:02:56;;;;;;;;;;;13.50;56.80;;;;;;4375733;32;19968;-40
2021/10/31 08:05:23;;;;;;;;;;;13.40;57.10;;;;;;4375390;32;20016;-41
2021/10/31 08:07:49;;;;;;;;;;;13.30;57.40;;;;;;4375569;32;19962;-41
2021/10/31 08:10:15;;;;;;;;;;;13.30;57.60;;;;;;4375211;32;20449;-41
2021/10/31 08:12:42;;;;;;;;;;;13.30;57.70;;;;;;4375260;32;20429;-40
2021/10/31 08:15:08;;;;;;;;;;;13.30;57.90;;;;;;4375061;32;19993;-40
2021/10/31 08:17:35;;;;;;;;;;;13.30;58.00;;;;;;4377873;32;20530;-41
2021/10/31 08:20:01;;;;;;;;;;;13.30;57.80;;;;;;4389983;32;19958;-40
2021/10/31 08:22:27;;;;;;;;;;;13.20;58.00;;;;;;4390837;32;19968;-40
2021/10/31 08:24:53;;;;;;;;;;;13.20;58.10;;;;;;4375959;32;19977;-41
2021/10/31 08:27:20;;;;;;;;;;;13.30;58.10;;;;;;4390128;32;19966;-41
2021/10/31 08:29:47;;;;;;;;;;;13.30;58.10;;;;;;4390243;32;20418;-41
2021/10/31 08:32:14;;;;;;;;;;;13.30;57.90;;;;;;4389943;32;19977;-39
2021/10/31 08:34:40;;;;;;;;;;;13.40;57.90;;;;;;4390394;32;19957;-40
2021/10/31 08:37:06;;;;;;;;;;;13.50;57.90;;;;;;4390607;32;20041;-41
2021/10/31 08:39:32;;;;;;;;;;;13.50;57.70;;;;;;4389768;32;19993;-40
2021/10/31 08:41:59;;;;;;;;;;;13.60;57.40;;;;;;4389050;32;21164;-41
2021/10/31 08:44:25;;;;;;;;;;;13.60;57.20;;;;;;4389924;32;19976;-41
2021/10/31 08:46:51;;;;;;;;;;;13.60;57.00;;;;;;4376209;32;19969;-41
2021/10/31 08:49:19;;;;;;;;;;;13.70;57.00;;;;;;4375045;32;19962;-41
2021/10/31 08:51:45;;;;;;;;;;;13.70;56.90;;;;;;4374574;32;20018;-43
2021/10/31 08:54:11;;;;;;;;;;;13.70;56.90;;;;;;4374296;32;20054;-40
2021/10/31 08:56:37;;;;;;;;;;;13.80;56.90;;;;;;4374938;32;20020;-40
2021/10/31 08:59:04;;;;;;;;;;;13.80;56.60;;;;;;4374462;32;19961;-40
2021/10/31 09:01:33;;;;;;;;;;;13.80;56.20;;;;;;4374302;32;20426;-41
2021/10/31 09:04:00;;;;;;;;;;;13.70;56.00;;;;;;4374445;32;20418;-40
2021/10/31 09:06:26;;;;;;;;;;;13.70;56.40;;;;;;4374415;32;19996;-41
2021/10/31 09:08:52;;;;;;;;;;;13.80;56.50;;;;;;4374891;32;19958;-41
2021/10/31 09:11:19;;;;;;;;;;;13.80;56.30;;;;;;4374265;32;20000;-45
2021/10/31 09:13:45;;;;;;;;;;;13.80;56.30;;;;;;4374358;32;20464;-39
2021/10/31 09:16:11;;;;;;;;;;;13.80;56.10;;;;;;4374124;32;19966;-39
2021/10/31 09:18:37;;;;;;;;;;;13.80;56.30;;;;;;4373744;32;20390;-40
2021/10/31 09:21:05;;;;;;;;;;;13.80;56.30;;;;;;4374038;32;20351;-40
2021/10/31 09:23:32;;;;;;;;;;;13.80;56.40;;;;;;4374267;32;20077;-41
2021/10/31 09:25:59;;;;;;;;;;;13.90;56.40;;;;;;4374110;32;19993;-39
2021/10/31 09:28:25;;;;;;;;;;;13.90;56.40;;;;;;4373984;32;20063;-40
2021/10/31 09:30:52;;;;;;;;;;;13.90;56.40;;;;;;4373729;32;20419;-41
2021/10/31 09:33:18;;;;;;;;;;;14.00;56.40;;;;;;4359572;32;19965;-40
2021/10/31 09:35:47;;;;;;;;;;;14.00;56.30;;;;;;4373918;32;20334;-41
2021/10/31 09:38:16;;;;;;;;;;;14.10;56.20;;;;;;4373980;32;20042;-39
2021/10/31 09:40:42;;;;;;;;;;;14.10;56.20;;;;;;4373763;32;19973;-41
2021/10/31 09:43:08;;;;;;;;;;;14.20;55.80;;;;;;4374267;32;19969;-40
2021/10/31 09:45:35;;;;;;;;;;;14.20;55.80;;;;;;4373489;32;19966;-40
2021/10/31 09:48:06;;;;;;;;;;;14.30;55.80;;;;;;4373986;32;19962;-39
2021/10/31 09:50:35;;;;;;;;;;;14.30;55.70;;;;;;4373907;32;20404;-41
2021/10/31 09:53:02;;;;;;;;;;;14.30;55.60;;;;;;4372353;32;19977;-41
2021/10/31 09:55:29;;;;;;;;;;;14.30;55.20;;;;;;4373691;32;20499;-39
2021/10/31 09:57:55;;;;;;;;;;;14.40;55.40;;;;;;4372036;32;19982;-41
2021/10/31 10:00:36;;;;;;;;;;;14.40;55.30;;;;;;4373682;32;19958;-41
2021/10/31 10:06:20;;;;;;;;;;;14.40;55.20;;;;;;4355963;32;19970;-40
2021/10/31 10:09:08;;;;;;;;;;;14.60;55.40;;;;;;4355919;32;20433;-40
2021/10/31 10:11:36;;;;;;;;;;;14.70;55.20;;;;;;4356528;32;20006;-40
2021/10/31 10:14:23;;;;;;;;;;;14.90;55.00;;;;;;4356107;32;19977;-40
2021/10/31 10:16:50;;;;;;;;;;;15.00;54.80;;;;;;4356251;32;20042;-40
2021/10/31 10:19:24;;;;;;;;;;;15.20;54.70;;;;;;4343504;32;19978;-41
2021/10/31 10:21:54;;;;;;;;;;;15.40;54.40;;;;;;4356664;32;20408;-42
2021/10/31 10:24:23;;;;;;;;;;;15.60;54.20;;;;;;4356214;32;19971;-41
2021/10/31 10:26:50;;;;;;;;;;;15.90;54.10;;;;;;4355741;32;19967;-40
2021/10/31 10:29:27;;;;;;;;;;;16.10;53.50;;;;;;4343648;32;20001;-40
2021/10/31 10:31:55;;;;;;;;;;;16.40;52.80;;;;;;4356193;32;20049;-41
2021/10/31 10:34:47;;;;;;;;;;;16.60;52.30;;;;;;4356045;32;19998;-41
2021/10/31 10:37:17;;;;;;;;;;;16.80;51.80;;;;;;4355787;32;20407;-41
2021/10/31 10:39:46;;;;;;;;;;;17.00;51.30;;;;;;4344125;32;19973;-41
2021/10/31 10:42:43;;;;;;;;;;;17.10;50.80;;;;;;4361832;32;19977;-42
2021/10/31 10:45:15;;;;;;;;;;;17.20;50.50;;;;;;4372200;32;19977;-41
2021/10/31 10:47:44;;;;;;;;;;;17.40;50.10;;;;;;4373673;32;19985;-41
2021/10/31 10:50:27;;;;;;;;;;;17.50;50.00;;;;;;4373387;32;20037;-41
2021/10/31 10:52:54;;;;;;;;;;;17.70;49.10;;;;;;4373405;32;19986;-41
2021/10/31 10:55:22;;;;;;;;;;;17.70;48.80;;;;;;4373256;32;19964;-44
2021/10/31 10:57:56;;;;;;;;;;;17.80;48.60;;;;;;4373269;32;20528;-40
2021/10/31 11:00:27;;;;;;;;;;;17.90;48.50;;;;;;4373243;32;20046;-43
2021/10/31 11:03:06;;;;;;;;;;;18.00;48.40;;;;;;4373251;32;19970;-41
2021/10/31 11:05:36;;;;;;;;;;;18.30;48.30;;;;;;4375391;32;19962;-41
2021/10/31 11:08:08;;;;;;;;;;;18.50;47.70;;;;;;4376378;32;19962;-41
2021/10/31 11:10:34;;;;;;;;;;;18.70;47.30;;;;;;4362725;32;19966;-40
2021/10/31 11:13:01;;;;;;;;;;;18.80;46.60;;;;;;4375952;32;20443;-40
2021/10/31 11:15:29;;;;;;;;;;;19.00;46.20;;;;;;4362343;32;19993;-41
2021/10/31 11:18:00;;;;;;;;;;;19.20;46.00;;;;;;4375940;32;19997;-41
2021/10/31 11:20:29;;;;;;;;;;;19.40;45.50;;;;;;4375990;32;19965;-40
2021/10/31 11:22:57;;;;;;;;;;;19.50;45.30;;;;;;4376333;32;19963;-41
2021/10/31 11:25:25;;;;;;;;;;;19.70;44.90;;;;;;4376044;32;19981;-40
2021/10/31 11:27:52;;;;;;;;;;;19.70;44.80;;;;;;4375953;32;20050;-41
2021/10/31 11:30:19;;;;;;;;;;;19.80;44.50;;;;;;4376178;32;20470;-41
2021/10/31 11:32:46;;;;;;;;;;;19.90;44.30;;;;;;4375961;32;19970;-40
2021/10/31 11:35:16;;;;;;;;;;;20.00;44.10;;;;;;4375658;32;19958;-41
2021/10/31 11:37:48;;;;;;;;;;;20.00;43.50;;;;;;4375794;32;20091;-40
2021/10/31 11:40:15;;;;;;;;;;;19.90;43.40;;;;;;4362282;32;20414;-40
2021/10/31 11:42:45;;;;;;;;;;;19.80;43.20;;;;;;4361804;32;20036;-40
2021/10/31 11:45:20;;;;;;;;;;;19.80;43.30;;;;;;4375491;32;19978;-40
2021/10/31 11:47:47;;;;;;;;;;;19.70;43.40;;;;;;4361933;32;20382;-40
2021/10/31 11:50:15;;;;;;;;;;;19.70;43.50;;;;;;4375445;32;19978;-40
2021/10/31 11:52:45;;;;;;;;;;;19.70;43.30;;;;;;4375574;32;19965;-41
2021/10/31 11:55:30;;;;;;;;;;;19.60;43.40;;;;;;4375751;32;19974;-41
2021/10/31 11:58:00;;;;;;;;;;;19.60;43.50;;;;;;4375872;32;20140;-40
2021/10/31 12:00:27;;;;;;;;;;;19.60;43.50;;;;;;4373944;32;19954;-42
2021/10/31 12:02:58;;;;;;;;;;;19.60;43.30;;;;;;4375529;32;20411;-41
2021/10/31 12:05:43;;;;;;;;;;;19.60;43.40;;;;;;4357851;32;20013;-41
2021/10/31 12:08:09;;;;;;;;;;;19.50;43.20;;;;;;4345381;32;20419;-41
2021/10/31 12:10:39;;;;;;;;;;;19.50;43.20;;;;;;4357623;32;19978;-41
2021/10/31 12:13:16;;;;;;;;;;;19.50;43.10;;;;;;4358279;32;19966;-42
2021/10/31 12:16:09;;;;;;;;;;;19.40;43.90;;;;;;4356841;32;20519;-42
2021/10/31 12:18:52;;;;;;;;;;;19.40;43.30;;;;;;4354596;32;19974;-41
2021/10/31 12:21:33;;;;;;;;;;;19.40;43.40;;;;;;4358393;32;20403;-41
2021/10/31 12:24:09;;;;;;;;;;;19.30;43.30;;;;;;4357502;32;20001;-41
2021/10/31 12:26:37;;;;;;;;;;;19.20;43.30;;;;;;4357720;32;20118;-40
2021/10/31 12:29:09;;;;;;;;;;;19.20;43.40;;;;;;4357903;32;20117;-40
2021/10/31 12:31:35;;;;;;;;;;;19.10;43.60;;;;;;4357621;32;19970;-41
2021/10/31 12:34:10;;;;;;;;;;;19.10;43.70;;;;;;4357785;32;20049;-42
2021/10/31 12:36:38;;;;;;;;;;;19.10;43.90;;;;;;4357585;32;20397;-40
2021/10/31 12:39:28;;;;;;;;;;;19.20;44.00;;;;;;4357691;32;20402;-41
2021/10/31 12:42:17;;;;;;;;;;;19.20;44.00;;;;;;4357779;32;19963;-41
2021/10/31 12:44:56;;;;;;;;;;;19.30;43.90;;;;;;4359757;32;19990;-41
2021/10/31 12:47:26;;;;;;;;;;;19.20;43.70;;;;;;4375098;32;19966;-41
2021/10/31 12:50:16;;;;;;;;;;;19.20;43.60;;;;;;4361377;32;19962;-41
2021/10/31 12:52:43;;;;;;;;;;;19.10;43.70;;;;;;4374882;32;19962;-41
2021/10/31 12:55:12;;;;;;;;;;;19.00;43.70;;;;;;4374719;32;19966;-41
2021/10/31 12:57:38;;;;;;;;;;;18.80;43.80;;;;;;4374833;32;19973;-40
2021/10/31 13:00:07;;;;;;;;;;;18.70;44.00;;;;;;4374605;32;19962;-41
2021/10/31 13:02:36;;;;;;;;;;;18.60;44.20;;;;;;4374700;32;19974;-41
2021/10/31 13:05:07;;;;;;;;;;;18.40;44.30;;;;;;4360684;32;19981;-40
2021/10/31 13:07:48;;;;;;;;;;;18.20;44.50;;;;;;4374802;32;19958;-40
2021/10/31 13:10:19;;;;;;;;;;;18.00;44.80;;;;;;4373093;32;19989;-40
2021/10/31 13:12:45;;;;;;;;;;;17.80;45.10;;;;;;4374659;32;19990;-41
2021/10/31 13:15:21;;;;;;;;;;;17.60;45.50;;;;;;4374722;32;19969;-40
2021/10/31 13:17:50;;;;;;;;;;;17.40;45.80;;;;;;4361052;32;20116;-40
2021/10/31 13:20:19;;;;;;;;;;;17.20;46.10;;;;;;4374533;32;20110;-40
2021/10/31 13:22:48;;;;;;;;;;;17.10;46.40;;;;;;4374386;32;20082;-41
2021/10/31 13:25:14;;;;;;;;;;;16.90;46.70;;;;;;4374250;32;20054;-42
2021/10/31 13:27:45;;;;;;;;;;;16.80;47.00;;;;;;4373781;32;19985;-41
2021/10/31 13:30:12;;;;;;;;;;;16.70;47.30;;;;;;4374301;32;20362;-41
2021/10/31 13:32:39;;;;;;;;;;;16.60;47.60;;;;;;4374165;32;20039;-41
2021/10/31 13:35:08;;;;;;;;;;;16.50;47.80;;;;;;4373932;32;19962;-43
2021/10/31 13:37:34;;;;;;;;;;;16.40;48.20;;;;;;4374311;32;19978;-41
2021/10/31 13:40:01;;;;;;;;;;;16.30;48.40;;;;;;4373740;32;20419;-41
2021/10/31 13:42:41;;;;;;;;;;;16.20;48.70;;;;;;4374217;32;19985;-42
2021/10/31 13:45:16;;;;;;;;;;;16.00;49.00;;;;;;4374333;32;19994;-42
2021/10/31 13:47:44;;;;;;;;;;;15.90;49.30;;;;;;4374248;32;20098;-41
2021/10/31 13:50:18;;;;;;;;;;;15.80;49.70;;;;;;4356061;32;20502;-42
2021/10/31 13:52:47;;;;;;;;;;;15.70;49.80;;;;;;4344011;32;20494;-43
2021/10/31 13:55:14;;;;;;;;;;;15.70;50.00;;;;;;4343735;32;19966;-42
2021/10/31 13:57:43;;;;;;;;;;;15.60;50.20;;;;;;4356463;32;20402;-41
2021/10/31 14:00:14;;;;;;;;;;;15.60;50.50;;;;;;4356484;32;19966;-42
2021/10/31 14:02:40;;;;;;;;;;;15.50;50.50;;;;;;4356102;32;19993;-42
2021/10/31 14:05:09;;;;;;;;;;;15.50;50.80;;;;;;4356064;32;20453;-42
2021/10/31 14:07:37;;;;;;;;;;;15.40;51.00;;;;;;4356910;32;19978;-44
2021/10/31 14:10:04;;;;;;;;;;;15.30;51.30;;;;;;4356823;32;20471;-42
2021/10/31 14:12:31;;;;;;;;;;;15.30;51.40;;;;;;4356090;32;20046;-42
2021/10/31 14:15:07;;;;;;;;;;;15.30;51.60;;;;;;4356729;32;20076;-41
2021/10/31 14:17:35;;;;;;;;;;;15.20;51.70;;;;;;4343736;32;20442;-41
2021/10/31 14:20:03;;;;;;;;;;;15.20;51.80;;;;;;4356790;32;19986;-41
2021/10/31 14:22:50;;;;;;;;;;;15.10;51.90;;;;;;4373539;32;19958;-40
2021/10/31 14:25:18;;;;;;;;;;;15.10;51.90;;;;;;4373515;32;19969;-42
2021/10/31 14:27:46;;;;;;;;;;;15.10;51.80;;;;;;4373786;32;19972;-42
2021/10/31 14:30:14;;;;;;;;;;;15.10;51.90;;;;;;4373220;32;19962;-41
2021/10/31 14:33:01;;;;;;;;;;;15.00;51.90;;;;;;4373644;32;20082;-42